createdAt,value
2018-11-28T00:02:06.546Z,85.57
2018-11-28T00:07:09.745Z,85.67
2018-11-28T00:12:12.918Z,85.70
2018-11-28T00:17:16.057Z,86.14
2018-11-28T00:22:19.241Z,85.78
2018-11-28T00:27:22.396Z,85.44
2018-11-28T00:32:25.491Z,85.71
2018-11-28T00:37:28.653Z,85.55
2018-11-28T00:42:31.829Z,86.05
2018-11-28T00:47:35.084Z,85.81
2018-11-28T00:52:38.339Z,86.08
2018-11-28T00:57:41.549Z,85.73
2018-11-28T01:02:44.921Z,86.44
2018-11-28T01:07:51.613Z,86.41
2018-11-28T01:12:54.904Z,86.47
2018-11-28T01:17:58.081Z,86.27
2018-11-28T01:23:01.292Z,85.88
2018-11-28T01:28:04.784Z,85.78
2018-11-28T01:33:08.009Z,86.32
2018-11-28T01:38:11.161Z,85.44
2018-11-28T01:43:14.312Z,85.90
2018-11-28T01:48:17.543Z,85.73
2018-11-28T01:53:20.732Z,85.58
2018-11-28T01:58:23.905Z,84.53
2018-11-28T02:03:27.101Z,85.46
2018-11-28T02:08:30.288Z,86.21
2018-11-28T02:13:33.456Z,86.33
2018-11-28T02:18:36.604Z,85.73
2018-11-28T02:23:39.881Z,85.85
2018-11-28T02:28:43.129Z,85.47
2018-11-28T02:33:46.412Z,85.06
2018-11-28T02:38:49.573Z,85.98
2018-11-28T02:43:52.717Z,85.53
2018-11-28T02:48:56.249Z,85.94
2018-11-28T02:53:59.372Z,86.63
2018-11-28T02:59:02.672Z,86.72
2018-11-28T03:04:06.299Z,86.65
2018-11-28T03:09:09.552Z,86.84
2018-11-28T03:14:12.795Z,86.93
2018-11-28T03:19:16.008Z,87.61
2018-11-28T03:24:19.204Z,88.03
2018-11-28T03:29:22.399Z,87.21
2018-11-28T03:34:25.582Z,87.29
2018-11-28T03:39:28.781Z,86.45
2018-11-28T03:44:31.957Z,87.33
2018-11-28T03:49:35.123Z,86.41
2018-11-28T03:54:38.262Z,86.76
2018-11-28T03:59:41.463Z,86.25
2018-11-28T04:04:44.659Z,85.11
2018-11-28T04:09:47.837Z,85.82
2018-11-28T04:14:51.048Z,86.16
2018-11-28T04:19:54.214Z,85.86
2018-11-28T04:24:57.397Z,85.78
2018-11-28T04:30:00.550Z,86.12
2018-11-28T04:35:04.529Z,86.70
2018-11-28T04:40:13.171Z,86.64
2018-11-28T04:45:18.916Z,86.09
2018-11-28T04:50:22.285Z,87.01
2018-11-28T04:55:25.434Z,87.87
2018-11-28T05:00:28.617Z,87.95
2018-11-28T05:05:31.801Z,88.05
2018-11-28T05:10:35.004Z,87.97
2018-11-28T05:15:38.235Z,88.65
2018-11-28T05:20:41.450Z,88.31
2018-11-28T05:25:44.641Z,88.04
2018-11-28T05:30:47.902Z,87.73
2018-11-28T05:35:51.085Z,87.63
2018-11-28T05:40:54.304Z,87.22
2018-11-28T05:45:57.474Z,87.41
2018-11-28T05:51:00.633Z,86.59
2018-11-28T05:56:04.504Z,87.18
2018-11-28T06:01:07.671Z,87.88
2018-11-28T06:06:10.881Z,87.76
2018-11-28T06:11:14.047Z,86.89
2018-11-28T06:16:17.262Z,86.74
2018-11-28T06:21:20.551Z,87.00
2018-11-28T06:26:23.823Z,87.13
2018-11-28T06:31:27.034Z,87.22
2018-11-28T06:36:30.229Z,86.39
2018-11-28T06:46:47.311Z,86.44
2018-11-28T06:51:50.628Z,86.14
2018-11-28T06:56:53.850Z,86.54
2018-11-28T07:01:57.020Z,86.40
2018-11-28T07:07:00.189Z,86.77
2018-11-28T07:12:03.467Z,86.43
2018-11-28T07:17:07.009Z,85.28
2018-11-28T07:22:10.189Z,85.79
2018-11-28T07:27:13.393Z,85.98
2018-11-28T07:32:16.574Z,84.88
2018-11-28T07:37:19.756Z,84.80
2018-11-28T07:42:22.901Z,84.23
2018-11-28T07:47:26.101Z,84.88
2018-11-28T07:52:29.283Z,83.87
2018-11-28T07:57:32.434Z,82.00
2018-11-28T08:02:35.603Z,83.62
2018-11-28T08:07:38.995Z,84.46
2018-11-28T08:12:42.199Z,84.56
2018-11-28T08:17:45.471Z,84.86
2018-11-28T08:22:48.664Z,84.19
2018-11-28T08:27:51.885Z,83.07
2018-11-28T08:32:56.296Z,82.42
2018-11-28T08:37:59.792Z,81.07
2018-11-28T08:43:03.230Z,81.60
2018-11-28T08:48:06.522Z,80.69
2018-11-28T08:53:09.692Z,80.20
2018-11-28T08:58:12.927Z,79.43
2018-11-28T09:03:16.173Z,79.44
2018-11-28T09:08:19.967Z,79.19
2018-11-28T09:13:23.285Z,77.45
2018-11-28T09:18:26.533Z,78.49
2018-11-28T09:23:29.744Z,78.59
2018-11-28T09:28:32.905Z,78.83
2018-11-28T09:33:36.113Z,78.37
2018-11-28T09:38:39.362Z,77.59
2018-11-28T09:43:42.521Z,77.21
2018-11-28T09:48:45.699Z,76.26
2018-11-28T09:53:48.863Z,75.75
2018-11-28T09:58:52.014Z,76.10
2018-11-28T10:03:55.319Z,72.83
2018-11-28T10:08:58.462Z,75.37
2018-11-28T10:14:01.640Z,72.58
2018-11-28T10:19:05.237Z,71.43
2018-11-28T10:24:08.420Z,71.14
2018-11-28T10:29:11.650Z,71.03
2018-11-28T10:34:14.853Z,71.79
2018-11-28T10:39:18.074Z,71.12
2018-11-28T10:44:21.320Z,71.96
2018-11-28T10:49:24.585Z,70.03
2018-11-28T10:54:27.778Z,69.51
2018-11-28T10:59:30.959Z,67.56
2018-11-28T11:05:37.658Z,69.85
2018-11-28T11:10:46.886Z,70.40
2018-11-28T11:15:57.083Z,69.03
2018-11-28T11:21:00.238Z,69.29
2018-11-28T11:26:03.485Z,68.73
2018-11-28T11:31:06.704Z,68.05
2018-11-28T11:36:09.893Z,68.37
2018-11-28T11:41:13.094Z,68.14
2018-11-28T11:46:16.312Z,67.80
2018-11-28T11:51:19.474Z,69.41
2018-11-28T11:56:22.676Z,68.59
2018-11-28T12:01:25.850Z,67.49
2018-11-28T12:06:28.996Z,68.04
2018-11-28T12:11:32.267Z,67.95
2018-11-28T12:16:35.446Z,67.06
2018-11-28T12:21:38.654Z,66.30
2018-11-28T12:26:41.869Z,66.78
2018-11-28T12:31:45.053Z,67.44
2018-11-28T12:36:48.222Z,66.30
2018-11-28T12:41:51.476Z,68.51
2018-11-28T12:46:54.677Z,69.10
2018-11-28T12:51:57.918Z,67.13
2018-11-28T12:57:01.122Z,64.91
2018-11-28T13:02:04.824Z,64.52
2018-11-28T13:07:07.998Z,64.81
2018-11-28T13:12:11.208Z,64.62
2018-11-28T13:17:14.436Z,63.64
2018-11-28T13:22:17.603Z,64.79
2018-11-28T13:27:20.817Z,66.83
2018-11-28T13:32:24.029Z,66.70
2018-11-28T13:37:27.224Z,67.38
2018-11-28T13:42:30.445Z,67.38
2018-11-28T13:47:33.709Z,66.14
2018-11-28T13:52:36.916Z,67.65
2018-11-28T13:57:40.097Z,66.49
2018-11-28T14:02:43.334Z,66.92
2018-11-28T14:07:46.584Z,68.52
2018-11-28T14:12:49.792Z,68.66
2018-11-28T14:17:56.720Z,66.34
2018-11-28T14:23:00.065Z,67.46
2018-11-28T14:28:03.293Z,67.49
2018-11-28T14:33:06.550Z,69.60
2018-11-28T14:38:09.905Z,68.11
2018-11-28T14:43:13.136Z,68.79
2018-11-28T14:48:16.377Z,69.10
2018-11-28T14:53:19.575Z,69.28
2018-11-28T14:58:22.793Z,69.72
2018-11-28T15:03:26.052Z,69.40
2018-11-28T15:08:30.028Z,68.07
2018-11-28T15:13:33.270Z,68.55
2018-11-28T15:18:36.542Z,68.77
2018-11-28T15:23:40.378Z,69.72
2018-11-28T15:28:43.718Z,69.64
2018-11-28T15:33:46.963Z,69.90
2018-11-28T15:38:50.198Z,69.66
2018-11-28T15:43:53.542Z,70.00
2018-11-28T15:48:56.780Z,70.75
2018-11-28T15:54:00.010Z,70.93
2018-11-28T15:59:03.292Z,71.02
2018-11-28T16:04:06.610Z,71.99
2018-11-28T16:09:15.653Z,72.57
2018-11-28T16:14:18.890Z,74.17
2018-11-28T16:19:22.072Z,72.07
2018-11-28T16:24:25.299Z,71.47
2018-11-28T16:29:28.481Z,72.85
2018-11-28T16:34:31.727Z,73.44
2018-11-28T16:39:34.957Z,72.80
2018-11-28T16:44:38.208Z,73.31
2018-11-28T16:49:41.393Z,73.66
2018-11-28T16:54:44.673Z,74.92
2018-11-28T16:59:47.929Z,75.08
2018-11-28T17:04:51.277Z,75.22
2018-11-28T17:09:54.563Z,73.95
2018-11-28T17:14:57.827Z,74.42
2018-11-28T17:20:01.038Z,75.21
2018-11-28T17:25:05.675Z,74.20
2018-11-28T17:30:11.838Z,72.78
2018-11-28T17:35:15.125Z,73.48
2018-11-28T17:40:24.913Z,74.19
2018-11-28T17:45:29.246Z,74.44
2018-11-28T17:50:32.612Z,74.69
2018-11-28T17:55:54.052Z,75.69
2018-11-28T18:00:57.302Z,74.47
2018-11-28T18:06:00.568Z,74.73
2018-11-28T18:11:11.002Z,74.44
2018-11-28T18:16:14.247Z,75.87
2018-11-28T18:21:17.920Z,75.62
2018-11-28T18:26:21.218Z,74.77
2018-11-28T18:31:24.590Z,74.98
2018-11-28T18:36:27.915Z,74.64
2018-11-28T18:41:31.289Z,75.92
2018-11-28T18:46:34.599Z,75.59
2018-11-28T18:51:37.885Z,75.41
2018-11-28T18:56:41.206Z,75.63
2018-11-28T19:01:48.363Z,75.77
2018-11-28T19:06:48.113Z,76.59
2018-11-28T19:11:51.469Z,76.20
2018-11-28T19:16:54.859Z,76.78
2018-11-28T19:21:58.410Z,77.27
2018-11-28T19:27:01.884Z,77.62
2018-11-28T19:32:06.501Z,77.87
2018-11-28T19:37:10.181Z,77.00
2018-11-28T19:42:13.797Z,76.88
2018-11-28T19:47:18.844Z,77.34
2018-11-28T19:52:22.490Z,76.75
2018-11-28T19:57:25.983Z,77.87
2018-11-28T20:02:29.443Z,77.18
2018-11-28T20:07:33.291Z,78.04
2018-11-28T20:12:37.435Z,77.95
2018-11-28T20:17:40.922Z,76.95
2018-11-28T20:22:44.683Z,76.83
2018-11-28T20:27:52.617Z,78.11
2018-11-28T20:32:57.445Z,76.83
2018-11-28T20:38:01.075Z,76.83
2018-11-28T20:43:05.578Z,77.92
2018-11-28T20:48:09.832Z,76.75
2018-11-28T20:53:17.156Z,78.06
2018-11-28T20:58:20.619Z,78.01
2018-11-28T21:03:24.008Z,77.79
2018-11-28T21:08:27.479Z,77.54
2018-11-28T21:13:30.768Z,78.08
2018-11-28T21:18:34.407Z,78.25
2018-11-28T21:23:37.901Z,78.49
2018-11-28T21:28:41.201Z,77.38
2018-11-28T21:33:44.473Z,77.21
2018-11-28T21:38:47.750Z,77.83
2018-11-28T21:43:51.825Z,77.84
2018-11-28T21:48:55.857Z,76.94
2018-11-28T21:53:59.132Z,75.33
2018-11-28T21:59:02.447Z,76.39
2018-11-28T22:04:05.922Z,76.91
2018-11-28T22:09:11.267Z,76.44
2018-11-28T22:14:15.065Z,76.64
2018-11-28T22:19:18.320Z,76.46
2018-11-28T22:24:21.753Z,75.96
2018-11-28T22:29:25.005Z,75.78
2018-11-28T22:34:28.314Z,76.22
2018-11-28T22:39:31.641Z,75.29
2018-11-28T22:44:34.922Z,74.99
2018-11-28T22:49:38.300Z,75.80
2018-11-28T22:54:41.573Z,75.49
2018-11-28T22:59:44.882Z,75.47
2018-11-28T23:04:48.057Z,74.95
2018-11-28T23:09:51.465Z,75.42
2018-11-28T23:14:54.809Z,74.24
2018-11-28T23:19:58.106Z,74.57
2018-11-28T23:25:01.677Z,75.25
2018-11-28T23:30:08.861Z,74.79
2018-11-28T23:35:12.463Z,74.86
2018-11-28T23:40:21.112Z,74.15
2018-11-28T23:45:25.269Z,74.23
2018-11-28T23:50:28.495Z,75.22
2018-11-28T23:55:32.125Z,75.39
